Terminal Aerodrome Forecast
Issued by NWS

Home | Current Version | Previous Version | Text Only | Print | Product List | Glossary On
Versions: 1 2 3 4 5 6 7 8 9 10 11 12 13 14
754
FTUS45 KLKN 221515 AAA
TAFTPH
TAF AMD
KTPH 221515Z 2215/2312 32008KT P6SM VCSH BKN060
      TEMPO 2218/2220 VRB15G32KT -TSRA BKN050CB
     FM222000 21014KT P6SM VCTS SCT060CB OVC080
      TEMPO 2222/2302 VRB15G32KT -TSRA BKN060CB
     FM230200 34012KT P6SM VCSH SCT050 OVC080=

USA.gov is the U.S. government's official web portal to all federal, state and local government web resources and services.